Terminal Aerodrome Forecast
Issued by NWS

Home | Current Version | Previous Version | Text Only | Print | Product List | Glossary On
Versions: 1 2 3 4 5 6 7 8 9 10 11 12 13 14 15 16 17 18 19 20
000
FTUS46 KPDT 201139
TAFRDM
TAF
KRDM 201139Z 2012/2112 18010KT P6SM VCSH BKN050 BKN070
     FM201700 20020G30KT P6SM SCT050 BKN080
     FM210200 19007KT P6SM BKN090
     FM210500 VRB05KT P6SM BKN040 OVC060
     FM211000 17005KT 4SM -SNRA BR OVC015=

USA.gov is the U.S. government's official web portal to all federal, state and local government web resources and services.